Paseo de los Artesanos, Puerto Rico
Current Conditions -  °F | °C
As of 9:53 AM on Tuesday 27 Jan 2015 (Local Time) from TJNR Reporting Station
Broken Clouds Broken Clouds  
Wind Chill: 82°   Ceiling: 4100
Heat Index: 87°   Visibility: 10mi
Dew Point: 73°   Wind: 12mph
Humidity: 74%   Direction: 160°SSE
Pressure: 30.06"   Gusts: NA
Location:  18.1853°N, 65.8667°W
Report Text: TJNR 271353Z AUTO 16010KT 10SM FEW021 FEW026 BKN041 28/23 A3006 RMK AO2 SLP179 T02780228 $
Loading
Personal Weather Stations






























Interactive Weather Map New forecast layout! Learn more

10-Day Weather Forecast

Advertisements
Track Severe Weather on mobile